createdAt,value
2023-05-24T00:00:25.622Z,49.32
2023-05-24T00:04:54.878Z,49.27
2023-05-24T00:05:52.726Z,49.23
2023-05-24T00:11:03.022Z,49.19
2023-05-24T00:16:47.806Z,49.16
2023-05-24T00:22:30.369Z,48.98
2023-05-24T00:28:08.288Z,48.66
2023-05-24T00:33:34.266Z,48.52
2023-05-24T00:40:23.289Z,48.81
2023-05-24T00:43:59.450Z,48.74
2023-05-24T00:49:35.678Z,48.83
2023-05-24T00:54:28.235Z,48.77
2023-05-24T01:00:19.560Z,48.70
2023-05-24T01:05:58.523Z,48.62
2023-05-24T01:16:19.433Z,48.60
2023-05-24T01:21:20.338Z,48.68
2023-05-24T01:27:06.418Z,48.58
2023-05-24T01:32:20.563Z,48.61
2023-05-24T01:37:43.290Z,48.58
2023-05-24T01:43:04.916Z,48.55
2023-05-24T01:48:17.852Z,48.54
2023-05-24T01:53:32.200Z,48.66
2023-05-24T01:58:40.088Z,48.59
2023-05-24T02:04:28.738Z,48.76
2023-05-24T02:10:47.749Z,48.72
2023-05-24T02:16:34.778Z,48.67
2023-05-24T02:21:51.223Z,48.61
2023-05-24T02:27:42.876Z,48.63
2023-05-24T02:34:41.766Z,48.67
2023-05-24T02:38:15.980Z,48.57
2023-05-24T02:43:23.879Z,48.57
2023-05-24T02:48:40.578Z,48.50
2023-05-24T02:53:51.600Z,48.46
2023-05-24T02:59:05.408Z,48.54
2023-05-24T03:04:13.342Z,48.72
2023-05-24T03:09:41.460Z,48.62
2023-05-24T03:16:39.180Z,49.02
2023-05-24T03:20:09.532Z,48.90
2023-05-24T03:25:17.675Z,48.80
2023-05-24T03:31:15.836Z,48.73
2023-05-24T03:35:57.351Z,48.69
2023-05-24T03:41:38.611Z,48.70
2023-05-24T03:46:58.282Z,48.83
2023-05-24T03:52:24.974Z,48.76
2023-05-24T03:57:57.625Z,48.79
2023-05-24T04:03:27.216Z,48.66
2023-05-24T04:09:09.815Z,48.68
2023-05-24T04:15:02.297Z,48.65
2023-05-24T04:20:12.643Z,48.63
2023-05-24T04:25:21.028Z,48.75
2023-05-24T04:30:44.212Z,48.71
2023-05-24T04:35:58.908Z,48.65
2023-05-24T04:41:17.986Z,48.68
2023-05-24T04:46:25.792Z,48.71
2023-05-24T04:51:38.970Z,48.74
2023-05-24T04:56:44.720Z,48.84
2023-05-24T05:02:11.628Z,49.00
2023-05-24T05:07:21.854Z,49.05
2023-05-24T05:13:54.518Z,49.02
2023-05-24T05:18:26.093Z,49.10
2023-05-24T05:22:50.556Z,49.17
2023-05-24T05:34:41.775Z,49.22
2023-05-24T05:34:43.687Z,49.24
2023-05-24T05:39:10.530Z,49.28
2023-05-24T05:44:34.301Z,49.55
2023-05-24T05:50:15.717Z,49.75
2023-05-24T05:55:35.121Z,49.96
2023-05-24T06:01:51.060Z,49.89
2023-05-24T06:15:46.724Z,49.74
2023-05-24T06:17:22.709Z,49.82
2023-05-24T06:23:05.001Z,49.93
2023-05-24T06:29:02.278Z,49.84
2023-05-24T06:34:47.958Z,49.85
2023-05-24T06:40:41.016Z,49.89
2023-05-24T06:46:26.200Z,49.90
2023-05-24T06:53:30.584Z,49.93
2023-05-24T06:58:29.970Z,49.87
2023-05-24T07:04:17.584Z,50.13
2023-05-24T07:10:19.063Z,50.12
2023-05-24T07:15:45.026Z,50.13
2023-05-24T07:21:47.436Z,50.00
2023-05-24T07:27:39.012Z,49.96
2023-05-24T07:32:57.811Z,50.01
2023-05-24T07:45:26.505Z,49.96
2023-05-24T07:51:53.554Z,49.91
2023-05-24T07:57:19.437Z,49.89
2023-05-24T08:13:48.624Z,49.99
2023-05-24T08:19:31.998Z,49.93
2023-05-24T08:37:05.697Z,49.90
2023-05-24T08:43:03.272Z,49.78
2023-05-24T08:54:33.280Z,49.79
2023-05-24T09:01:04.793Z,49.78
2023-05-24T09:06:02.709Z,49.78
2023-05-24T09:11:46.688Z,49.61
2023-05-24T09:17:00.142Z,49.66
2023-05-24T09:22:44.290Z,49.64
2023-05-24T09:28:23.020Z,49.65
2023-05-24T09:33:48.962Z,49.72
2023-05-24T09:45:35.341Z,49.74
2023-05-24T09:51:19.878Z,49.62
2023-05-24T09:57:21.874Z,49.47
2023-05-24T10:03:14.095Z,49.36
2023-05-24T10:14:43.889Z,49.14
2023-05-24T10:25:16.613Z,49.20
2023-05-24T10:30:57.075Z,49.12
2023-05-24T10:36:42.064Z,49.02
2023-05-24T10:42:28.906Z,49.21
2023-05-24T10:47:38.903Z,49.18
2023-05-24T10:59:02.805Z,49.13
2023-05-24T11:04:48.693Z,48.95
2023-05-24T11:13:09.472Z,49.25
2023-05-24T11:15:55.397Z,49.23
2023-05-24T11:21:41.099Z,49.25
2023-05-24T11:27:30.358Z,49.02
2023-05-24T11:39:17.148Z,48.65
2023-05-24T11:45:21.222Z,48.70
2023-05-24T11:56:05.389Z,48.85
2023-05-24T12:01:50.456Z,48.87
2023-05-24T12:07:35.629Z,48.71
2023-05-24T12:13:16.080Z,48.54
2023-05-24T12:25:19.638Z,48.81
2023-05-24T12:31:03.158Z,48.57
2023-05-24T12:37:00.781Z,48.45
2023-05-24T12:42:45.089Z,48.23
2023-05-24T12:48:35.182Z,48.02
2023-05-24T12:54:21.224Z,48.06
2023-05-24T13:00:04.958Z,48.11
2023-05-24T13:05:55.329Z,48.37
2023-05-24T13:11:36.552Z,48.07
2023-05-24T13:16:53.280Z,48.05
2023-05-24T13:22:21.655Z,48.24
2023-05-24T13:29:34.361Z,48.12
2023-05-24T13:32:46.835Z,48.29
2023-05-24T13:38:06.714Z,48.26
2023-05-24T13:43:17.222Z,48.13
2023-05-24T13:48:36.227Z,48.16
2023-05-24T13:59:40.357Z,47.66
2023-05-24T14:10:46.338Z,47.82
2023-05-24T14:16:27.319Z,47.74
2023-05-24T14:22:09.708Z,47.57
2023-05-24T14:32:55.125Z,47.86
2023-05-24T14:49:53.194Z,47.93
2023-05-24T14:54:27.792Z,48.10
2023-05-24T15:00:07.173Z,47.99
2023-05-24T15:05:32.365Z,48.04
2023-05-24T15:10:59.116Z,47.94
2023-05-24T15:16:03.318Z,47.91
2023-05-24T15:22:05.814Z,47.84
2023-05-24T15:27:13.743Z,47.75
2023-05-24T15:32:57.574Z,47.94
2023-05-24T15:38:42.446Z,47.91
2023-05-24T15:44:02.816Z,47.66
2023-05-24T15:49:15.184Z,47.75
2023-05-24T15:58:54.682Z,47.50
2023-05-24T16:01:55.339Z,47.62
2023-05-24T16:05:04.751Z,47.58
2023-05-24T16:12:08.285Z,47.66
2023-05-24T16:15:26.739Z,47.75
2023-05-24T16:20:40.976Z,47.79
2023-05-24T16:25:53.026Z,48.04
2023-05-24T16:31:01.040Z,47.81
2023-05-24T16:36:34.120Z,47.66
2023-05-24T16:41:32.585Z,47.58
2023-05-24T16:46:40.285Z,47.74
2023-05-24T16:51:52.463Z,47.57
2023-05-24T16:57:35.778Z,47.73
2023-05-24T17:02:49.553Z,47.77
2023-05-24T17:07:57.092Z,47.65
2023-05-24T17:13:11.239Z,47.62
2023-05-24T17:18:40.906Z,47.40
2023-05-24T17:24:04.982Z,47.52
2023-05-24T17:29:50.808Z,47.51
2023-05-24T17:35:06.011Z,47.52
2023-05-24T17:41:01.057Z,47.33
2023-05-24T17:46:04.828Z,47.33
2023-05-24T17:51:12.841Z,48.33
2023-05-24T17:56:20.470Z,48.43
2023-05-24T18:01:28.437Z,46.97
2023-05-24T18:06:36.451Z,46.99
2023-05-24T18:11:44.552Z,46.52
2023-05-24T18:16:52.316Z,46.01
2023-05-24T18:22:01.052Z,45.28
2023-05-24T18:27:08.939Z,45.06
2023-05-24T18:32:16.766Z,44.46
2023-05-24T18:37:24.504Z,44.91
2023-05-24T18:42:32.320Z,44.65
2023-05-24T18:47:40.043Z,44.55
2023-05-24T18:52:47.850Z,44.41
2023-05-24T18:57:55.753Z,44.29
2023-05-24T19:03:03.554Z,44.10
2023-05-24T19:08:11.480Z,43.66
2023-05-24T19:13:19.320Z,43.44
2023-05-24T19:18:27.039Z,43.21
2023-05-24T19:23:34.783Z,43.04
2023-05-24T19:28:42.569Z,42.69
2023-05-24T19:34:00.072Z,42.66
2023-05-24T19:38:58.367Z,42.64
2023-05-24T19:44:05.733Z,42.30
2023-05-24T19:49:13.275Z,42.11
2023-05-24T19:54:41.646Z,41.42
2023-05-24T19:59:33.432Z,42.47
2023-05-24T20:04:48.977Z,42.60
2023-05-24T20:09:59.111Z,42.76
2023-05-24T20:15:13.007Z,42.73
2023-05-24T20:20:18.159Z,42.64
2023-05-24T20:25:29.756Z,42.58
2023-05-24T20:30:46.741Z,42.49
2023-05-24T20:36:01.084Z,42.45
2023-05-24T20:41:11.178Z,42.33
2023-05-24T20:46:25.472Z,42.66
2023-05-24T20:51:32.648Z,42.20
2023-05-24T20:57:15.053Z,42.09
2023-05-24T21:02:59.922Z,41.99
2023-05-24T21:08:13.560Z,41.91
2023-05-24T21:13:28.348Z,41.79
2023-05-24T21:18:42.572Z,41.73
2023-05-24T21:23:50.324Z,41.66
2023-05-24T21:28:57.789Z,41.64
2023-05-24T21:34:05.347Z,41.63
2023-05-24T21:39:12.671Z,41.68
2023-05-24T21:44:20.091Z,41.70
2023-05-24T21:49:27.538Z,41.73
2023-05-24T21:54:35.124Z,41.89
2023-05-24T21:59:47.261Z,41.80
2023-05-24T22:04:54.875Z,41.86
2023-05-24T22:10:43.952Z,41.73
2023-05-24T22:15:51.376Z,41.57
2023-05-24T22:21:38.705Z,41.51
2023-05-24T22:27:21.117Z,41.47
2023-05-24T22:32:38.875Z,41.39
2023-05-24T22:39:04.684Z,41.41
2023-05-24T22:45:30.924Z,41.37
2023-05-24T22:49:29.671Z,41.26
2023-05-24T22:55:12.798Z,41.21
2023-05-24T23:00:55.132Z,41.31
2023-05-24T23:06:42.849Z,41.40
2023-05-24T23:13:23.523Z,41.44
2023-05-24T23:18:24.133Z,41.53
2023-05-24T23:30:03.300Z,41.88
2023-05-24T23:35:43.805Z,42.08
2023-05-24T23:41:41.245Z,42.27
2023-05-24T23:47:39.388Z,42.32
2023-05-24T23:58:36.531Z,42.52
